createdAt,value
2022-10-22T00:00:29.041Z,25.25
2022-10-22T00:05:32.580Z,26.55
2022-10-22T00:10:37.969Z,24.02
2022-10-22T00:20:46.099Z,29.23
2022-10-22T00:25:49.662Z,32.53
2022-10-22T00:30:59.186Z,29.98
2022-10-22T00:36:02.758Z,27.95
2022-10-22T00:41:06.927Z,26.58
2022-10-22T00:46:12.103Z,27.20
2022-10-22T00:51:15.825Z,25.27
2022-10-22T00:56:19.696Z,29.15
2022-10-22T01:01:27.677Z,27.45
2022-10-22T01:06:33.606Z,28.55
2022-10-22T01:11:47.447Z,25.23
2022-10-22T01:17:05.688Z,27.42
2022-10-22T01:22:18.080Z,29.48
2022-10-22T01:27:32.485Z,29.83
2022-10-22T01:32:42.244Z,26.67
2022-10-22T01:37:49.775Z,29.83
2022-10-22T01:43:00.894Z,28.25
2022-10-22T01:48:20.390Z,24.80
2022-10-22T01:53:33.562Z,25.98
2022-10-22T01:58:45.672Z,29.45
2022-10-22T02:03:57.277Z,23.67
2022-10-22T02:09:03.328Z,26.88
2022-10-22T02:14:09.923Z,27.17
2022-10-22T02:19:20.501Z,25.35
2022-10-22T02:24:25.139Z,27.80
2022-10-22T02:29:34.190Z,26.58
2022-10-22T02:34:39.569Z,25.20
2022-10-22T02:39:43.440Z,23.55
2022-10-22T02:44:46.977Z,23.02
2022-10-22T02:49:52.155Z,25.45
2022-10-22T02:54:55.745Z,26.07
2022-10-22T02:59:59.319Z,22.05
2022-10-22T03:05:04.594Z,27.33
2022-10-22T03:10:09.038Z,20.67
2022-10-22T03:15:12.622Z,18.42
2022-10-22T03:20:18.025Z,19.17
2022-10-22T03:25:24.956Z,23.75
2022-10-22T03:30:28.556Z,22.30
2022-10-22T03:35:37.131Z,20.83
2022-10-22T03:40:41.474Z,17.23
2022-10-22T03:45:45.040Z,18.80
2022-10-22T03:50:51.130Z,27.70
2022-10-22T03:55:54.691Z,17.70
2022-10-22T04:00:58.286Z,18.13
2022-10-22T04:06:12.120Z,16.65
2022-10-22T04:11:17.356Z,15.57
2022-10-22T04:16:25.006Z,15.93
2022-10-22T04:21:32.751Z,16.63
2022-10-22T04:26:36.311Z,17.70
2022-10-22T04:31:39.852Z,18.40
2022-10-22T04:36:45.025Z,14.77
2022-10-22T04:41:48.643Z,17.83
2022-10-22T04:46:52.183Z,16.42
2022-10-22T04:51:57.407Z,17.27
2022-10-22T04:57:00.974Z,18.43
2022-10-22T05:02:04.524Z,20.65
2022-10-22T05:07:09.657Z,17.58
2022-10-22T05:12:13.176Z,19.53
2022-10-22T05:17:16.688Z,19.95
2022-10-22T05:22:21.862Z,21.30
2022-10-22T05:27:25.473Z,17.80
2022-10-22T05:32:29.010Z,15.48
2022-10-22T05:37:34.183Z,18.83
2022-10-22T05:42:37.890Z,15.50
2022-10-22T05:47:41.652Z,15.93
2022-10-22T05:52:46.864Z,16.98
2022-10-22T05:57:50.403Z,19.77
2022-10-22T06:02:53.907Z,19.13
2022-10-22T06:08:00.007Z,16.45
2022-10-22T06:13:03.552Z,15.68
2022-10-22T06:18:07.125Z,16.10
2022-10-22T06:23:12.313Z,17.65
2022-10-22T06:28:15.866Z,20.13
2022-10-22T06:33:19.435Z,17.48
2022-10-22T06:38:24.621Z,16.52
2022-10-22T06:43:29.244Z,22.73
2022-10-22T06:48:32.861Z,18.80
2022-10-22T06:53:38.495Z,18.08
2022-10-22T06:58:42.260Z,16.73
2022-10-22T07:03:46.158Z,20.50
2022-10-22T07:08:51.983Z,18.63
2022-10-22T07:18:58.944Z,18.90
2022-10-22T07:24:04.232Z,15.80
2022-10-22T07:29:07.776Z,17.13
2022-10-22T07:34:11.500Z,18.35
2022-10-22T07:39:16.669Z,16.80
2022-10-22T07:44:20.337Z,17.87
2022-10-22T07:49:24.049Z,18.25
2022-10-22T07:54:30.632Z,19.75
2022-10-22T07:59:34.308Z,20.20
2022-10-22T08:04:38.181Z,16.23
2022-10-22T08:09:43.488Z,10.18
2022-10-22T08:14:47.138Z,10.13
2022-10-22T08:19:51.403Z,9.23
2022-10-22T08:24:56.677Z,8.80
2022-10-22T08:30:00.343Z,6.90
2022-10-22T08:35:04.171Z,6.50
2022-10-22T08:40:14.463Z,4.07
2022-10-22T08:45:23.621Z,4.82
2022-10-22T08:50:34.530Z,5.80
2022-10-22T08:55:40.639Z,3.90
2022-10-22T09:00:47.196Z,4.72
2022-10-22T09:06:02.542Z,5.32
2022-10-22T09:11:19.729Z,4.35
2022-10-22T09:16:34.724Z,3.53
2022-10-22T09:21:47.135Z,4.10
2022-10-22T09:26:53.235Z,4.00
2022-10-22T09:31:56.761Z,4.28
2022-10-22T09:37:01.479Z,1.90
2022-10-22T09:42:07.447Z,1.98
2022-10-22T09:47:42.663Z,3.13
2022-10-22T09:52:54.962Z,1.40
2022-10-22T09:58:02.266Z,1.75
2022-10-22T10:03:05.862Z,1.65
2022-10-22T10:08:15.038Z,0.70
2022-10-22T10:13:43.135Z,1.40
2022-10-22T10:19:02.496Z,1.13
2022-10-22T10:24:15.370Z,1.75
2022-10-22T10:34:49.892Z,1.23
2022-10-22T10:40:18.265Z,1.27
2022-10-22T10:45:31.264Z,0.73
2022-10-22T10:50:42.099Z,1.63
2022-10-22T10:55:58.765Z,0.98
2022-10-22T11:01:13.478Z,0.63
2022-10-22T11:06:23.046Z,1.00
2022-10-22T11:11:35.421Z,0.80
2022-10-22T11:16:45.717Z,0.32
2022-10-22T11:21:56.630Z,0.77
2022-10-22T11:27:07.542Z,0.20
2022-10-22T11:32:18.298Z,0.10
2022-10-22T11:37:23.561Z,1.10
2022-10-22T11:42:36.158Z,0.28
2022-10-22T11:48:06.942Z,0.05
2022-10-22T11:53:21.599Z,0.10
2022-10-22T11:58:33.208Z,0.52
2022-10-22T12:03:43.134Z,0.38
2022-10-22T12:08:51.908Z,0.55
2022-10-22T12:14:04.758Z,0.65
2022-10-22T12:19:15.934Z,0.35
2022-10-22T12:24:21.795Z,0.80
2022-10-22T12:34:29.743Z,2.67
2022-10-22T12:39:33.320Z,2.30
2022-10-22T12:44:36.889Z,3.35
2022-10-22T12:49:46.829Z,3.90
2022-10-22T12:54:52.601Z,2.42
2022-10-22T13:05:25.398Z,4.18
2022-10-22T13:10:33.599Z,4.40
2022-10-22T13:15:39.854Z,4.82
2022-10-22T13:20:54.911Z,6.57
2022-10-22T13:26:04.401Z,3.17
2022-10-22T13:31:16.377Z,4.38
2022-10-22T13:36:23.137Z,7.40
2022-10-22T13:41:27.983Z,6.40
2022-10-22T13:46:32.525Z,6.17
2022-10-22T13:51:37.714Z,6.70
2022-10-22T13:56:41.260Z,5.20
2022-10-22T14:01:46.460Z,4.38
2022-10-22T14:06:51.646Z,4.43
2022-10-22T14:11:55.210Z,6.10
2022-10-22T14:16:58.749Z,10.45
2022-10-22T14:22:04.072Z,4.72
2022-10-22T14:27:07.588Z,6.05
2022-10-22T14:32:15.410Z,6.45
2022-10-22T14:37:21.467Z,5.07
2022-10-22T14:42:26.174Z,6.65
2022-10-22T14:47:29.684Z,5.25
2022-10-22T14:52:34.915Z,4.00
2022-10-22T14:57:38.825Z,5.27
2022-10-22T15:02:42.844Z,6.40
2022-10-22T15:07:48.400Z,5.35
2022-10-22T15:12:51.965Z,4.07
2022-10-22T15:17:55.486Z,6.45
2022-10-22T15:23:00.669Z,6.60
2022-10-22T15:28:09.510Z,5.47
2022-10-22T15:33:13.594Z,6.00
2022-10-22T15:38:19.024Z,6.50
2022-10-22T15:43:22.620Z,5.07
2022-10-22T15:48:26.129Z,6.32
2022-10-22T15:53:31.295Z,3.95
2022-10-22T15:58:34.872Z,7.10
2022-10-22T16:03:38.993Z,4.82
2022-10-22T16:08:44.287Z,8.85
2022-10-22T16:13:47.875Z,6.13
2022-10-22T16:18:51.553Z,8.18
2022-10-22T16:23:56.788Z,9.75
2022-10-22T16:29:00.587Z,8.40
2022-10-22T16:34:04.116Z,7.35
2022-10-22T16:39:09.312Z,6.85
2022-10-22T16:44:12.846Z,11.00
2022-10-22T16:49:16.461Z,7.28
2022-10-22T16:54:21.700Z,6.57
2022-10-22T16:59:25.388Z,5.65
2022-10-22T17:04:28.901Z,5.25
2022-10-22T17:09:34.061Z,4.32
2022-10-22T17:14:37.805Z,5.20
2022-10-22T17:19:41.374Z,5.82
2022-10-22T17:24:46.545Z,6.70
2022-10-22T17:29:50.204Z,4.65
2022-10-22T17:34:53.733Z,5.03
2022-10-22T17:39:58.924Z,4.05
2022-10-22T17:45:02.478Z,4.68
2022-10-22T17:50:06.514Z,7.18
2022-10-22T17:55:13.856Z,3.78
2022-10-22T18:05:21.207Z,5.07
2022-10-22T18:10:26.413Z,7.07
2022-10-22T18:15:29.974Z,5.65
2022-10-22T18:20:33.803Z,3.80
2022-10-22T18:25:41.936Z,4.30
2022-10-22T18:30:46.165Z,4.47
2022-10-22T18:35:49.680Z,5.72
2022-10-22T18:40:54.874Z,3.90
2022-10-22T18:45:58.387Z,6.38
2022-10-22T18:51:04.302Z,4.22
2022-10-22T18:56:11.364Z,4.65
2022-10-22T19:01:16.842Z,3.95
2022-10-22T19:06:26.898Z,4.30
2022-10-22T19:11:32.314Z,4.20
2022-10-22T19:16:36.587Z,4.43
2022-10-22T19:21:40.132Z,4.78
2022-10-22T19:26:45.698Z,5.70
2022-10-22T19:31:49.291Z,8.40
2022-10-22T19:36:52.801Z,4.50
2022-10-22T19:41:57.976Z,6.10
2022-10-22T19:47:01.517Z,5.22
2022-10-22T19:52:05.123Z,6.30
2022-10-22T19:57:10.299Z,8.18
2022-10-22T20:02:17.116Z,5.38
2022-10-22T20:07:20.674Z,6.90
2022-10-22T20:12:25.834Z,6.18
2022-10-22T20:17:29.460Z,7.38
2022-10-22T20:22:32.983Z,7.10
2022-10-22T20:27:39.450Z,5.63
2022-10-22T20:32:43.377Z,6.50
2022-10-22T20:37:47.575Z,5.03
2022-10-22T20:42:52.773Z,7.05
2022-10-22T20:48:02.704Z,6.15
2022-10-22T20:53:06.717Z,6.93
2022-10-22T20:58:11.903Z,6.20
2022-10-22T21:03:15.896Z,7.55
2022-10-22T21:08:19.418Z,7.57
2022-10-22T21:13:24.575Z,7.53
2022-10-22T21:18:28.136Z,7.10
2022-10-22T21:23:31.681Z,7.07
2022-10-22T21:28:37.963Z,10.07
2022-10-22T21:33:41.491Z,8.18
2022-10-22T21:38:45.037Z,6.82
2022-10-22T21:43:50.671Z,9.57
2022-10-22T21:48:54.983Z,9.95
2022-10-22T21:53:58.885Z,11.75
2022-10-22T21:59:05.043Z,8.27
2022-10-22T22:04:08.570Z,10.82
2022-10-22T22:09:12.473Z,14.65
2022-10-22T22:14:17.661Z,10.75
2022-10-22T22:19:21.430Z,11.75
2022-10-22T22:24:25.074Z,11.02
2022-10-22T22:29:30.250Z,7.70
2022-10-22T22:34:33.781Z,10.73
2022-10-22T22:39:37.340Z,9.07
2022-10-22T22:44:42.514Z,9.20
2022-10-22T22:49:46.049Z,10.38
2022-10-22T22:54:49.676Z,12.25
2022-10-22T22:59:54.828Z,8.43
2022-10-22T23:04:58.464Z,11.02
2022-10-22T23:10:01.992Z,9.90
2022-10-22T23:15:08.160Z,11.93
2022-10-22T23:20:12.018Z,9.73
2022-10-22T23:25:15.650Z,10.45
2022-10-22T23:30:20.964Z,10.13
2022-10-22T23:35:24.958Z,11.07
2022-10-22T23:40:28.480Z,12.60
2022-10-22T23:45:34.999Z,12.77
2022-10-22T23:50:38.576Z,12.15
2022-10-22T23:55:43.610Z,11.95
